Latest Weather Observations for Mardie

IDW60801

Issued at 7:35 am WST Monday 24 November 2014 (issued every 30 minutes, with the page automatically refreshed every 10 minutes)

About weather observations | Map of weather stations | Latest weather observations for WA | Other Formats
Station Details ID: 005008 Name: MARDIE Lat: -21.19 Lon: 115.98 Height: 11.0 m
Data from the previous 72 hours. | See also: Recent months at Mardie
Date/Time
WST
Temp
°C
App
Temp
°C
Dew
Point
Rel
Hum
%
Delta-T
°C
Wind Press
QNH
hPa
Press
MSL
hPa
Rain
since 9 am
mm
Dir
 
Spd
km/h
Gust
km/h
Spd
kts
Gust
kts
24/07:30am 27.1 25.9 12.7 41 8.4 SW 11 17 6 9 1010.7 1010.7 0.0
24/07:00am 24.9 23.7 12.8 47 7.0 WSW 11 17 6 9 1010.6 1010.6 0.0
24/06:30am 24.3 22.7 12.9 49 6.6 SW 13 19 7 10 1010.3 1010.3 0.0
24/06:00am 22.8 22.1 13.3 55 5.5 SW 9 13 5 7 1010.1 1010.1 0.0
24/05:30am 22.1 21.5 13.5 58 5.0 WSW 9 13 5 7 1010.0 1010.0 0.0
24/05:00am 21.6 21.1 13.8 61 4.5 WSW 9 11 5 6 1009.8 1009.8 0.0
24/04:30am 21.9 21.8 13.8 60 4.7 WSW 7 11 4 6 1009.8 1009.8 0.0
24/04:00am 22.0 21.9 13.9 60 4.7 WSW 7 9 4 5 1009.8 1009.8 0.0
24/03:30am 22.3 22.5 14.2 60 4.7 SW 6 7 3 4 1009.7 1009.7 0.0
24/03:00am 23.0 23.0 14.3 58 5.1 SW 7 9 4 5 1009.5 1009.5 0.0
24/02:30am 23.4 23.2 14.7 58 5.2 SW 9 11 5 6 1009.6 1009.6 0.0
24/02:00am 23.9 24.2 14.9 57 5.4 SW 7 11 4 6 1009.6 1009.6 0.0
24/01:30am 24.4 24.4 15.1 56 5.6 WSW 9 15 5 8 1009.7 1009.7 0.0
24/01:00am 24.8 23.9 14.9 54 5.9 WSW 13 17 7 9 1010.0 1010.0 0.0
24/12:30am 25.2 24.5 15.5 55 5.9 WSW 13 17 7 9 1010.2 1010.2 0.0
24/12:00am 25.4 25.1 16.5 58 5.5 WSW 13 17 7 9 1010.4 1010.4 0.0
 
Date/Time
WST
Temp
°C
App
Temp
°C
Dew
Point
Rel
Hum
%
Delta-T
°C
Wind Press
QNH
hPa
Press
MSL
hPa
Rain
since 9 am
mm
Dir
 
Spd
km/h
Gust
km/h
Spd
kts
Gust
kts
23/11:30pm 25.8 26.0 17.7 61 5.1 WSW 13 17 7 9 1010.6 1010.6 0.0
23/11:00pm 25.9 26.9 18.6 64 4.7 WSW 11 17 6 9 1010.7 1010.7 0.0
23/10:30pm 26.1 26.5 19.0 65 4.6 WSW 15 20 8 11 1010.8 1010.8 0.0
23/10:00pm 26.2 26.9 19.6 67 4.3 WSW 15 19 8 10 1010.7 1010.7 0.0
23/09:30pm 26.1 27.5 19.5 67 4.3 W 11 15 6 8 1010.6 1010.6 0.0
23/09:00pm 26.3 27.9 19.2 65 4.6 W 9 13 5 7 1010.6 1010.6 0.0
23/08:30pm 26.5 26.7 18.6 62 5.0 W 15 19 8 10 1010.5 1010.5 0.0
23/08:00pm 26.7 27.4 18.0 59 5.5 W 11 19 6 10 1010.3 1010.3 0.0
23/07:30pm 27.0 26.5 17.8 57 5.8 W 17 28 9 15 1010.0 1010.0 0.0
23/07:00pm 27.5 26.4 17.4 54 6.4 W 19 24 10 13 1009.5 1009.5 0.0
23/06:30pm 28.1 26.3 16.1 48 7.4 W 20 28 11 15 1009.3 1009.3 0.0
23/06:00pm 28.7 25.2 15.6 45 8.1 W 28 37 15 20 1008.9 1008.9 0.0
23/05:30pm 29.2 26.3 17.1 48 7.6 W 28 39 15 21 1008.8 1008.8 0.0
23/05:00pm 31.1 27.2 15.5 39 9.7 W 30 37 16 20 1008.6 1008.6 0.0
23/04:30pm 31.7 27.8 14.4 35 10.6 W 28 39 15 21 1008.4 1008.4 0.0
23/04:00pm 32.0 28.5 15.5 37 10.3 W 28 37 15 20 1008.3 1008.3 0.0
23/03:30pm 31.9 28.5 15.8 38 10.0 W 28 37 15 20 1008.3 1008.3 0.0
23/03:00pm 32.7 28.3 12.9 30 11.9 W 28 37 15 20 1008.6 1008.6 0.0
23/02:30pm 34.4 30.1 13.3 28 12.8 WNW 28 33 15 18 1008.6 1008.6 0.0
23/02:00pm 34.3 28.6 6.6 18 15.2 W 26 33 14 18 1008.8 1008.8 0.0
23/01:30pm 34.8 29.9 9.9 22 14.4 WNW 26 35 14 19 1008.9 1008.9 0.0
23/01:00pm 33.9 29.8 12.8 28 12.7 WNW 26 35 14 19 1009.1 1009.1 0.0
23/12:30pm 33.3 29.6 13.9 31 11.8 WNW 26 33 14 18 1009.4 1009.4 0.0
23/12:00pm 33.4 29.9 14.5 32 11.6 WNW 26 35 14 19 1009.7 1009.7 0.0
23/11:30am 33.3 30.5 14.4 32 11.6 WNW 22 30 12 16 1010.0 1010.0 0.0
23/11:00am 33.4 31.1 14.0 31 11.9 WNW 19 30 10 16 1010.2 1010.2 0.0
23/10:30am 33.1 31.4 13.7 31 11.8 WNW 15 22 8 12 1010.5 1010.5 0.0
23/10:00am 33.5 31.3 10.8 25 13.2 WSW 13 22 7 12 1010.6 1010.6 0.0
23/09:30am 32.0 30.7 11.2 28 12.1 SSW 9 15 5 8 1010.7 1010.7 0.0
23/09:00am 30.7 29.1 11.6 31 11.1 SW 11 19 6 10 1010.8 1010.8 0.0
23/08:30am 29.5 27.7 12.0 34 10.2 SSW 13 20 7 11 1010.8 1010.8 0.0
23/08:00am 27.6 25.4 12.0 38 9.0 SSW 15 20 8 11 1010.8 1010.8 0.0
23/07:30am 26.5 23.7 12.5 41 8.1 SSW 19 26 10 14 1010.6 1010.6 0.0
23/07:00am 25.2 22.8 12.8 46 7.2 SSW 17 22 9 12 1010.4 1010.4 0.0
23/06:30am 23.6 21.3 12.9 51 6.2 SW 17 20 9 11 1010.1 1010.1 0.0
23/06:00am 22.7 20.7 12.6 53 5.8 SW 15 20 8 11 1009.8 1009.8 0.0
23/05:30am 22.1 20.4 12.6 55 5.4 WSW 13 17 7 9 1009.5 1009.5 0.0
23/05:00am 22.1 20.8 12.4 54 5.5 WSW 11 15 6 8 1009.5 1009.5 0.0
23/04:30am 22.3 21.1 12.8 55 5.4 SW 11 15 6 8 1009.2 1009.2 0.0
23/04:00am 22.5 21.6 12.7 54 5.6 WSW 9 13 5 7 1009.1 1009.1 0.0
23/03:30am 22.8 21.9 12.7 53 5.8 SW 9 15 5 8 1009.0 1009.0 0.0
23/03:00am 23.6 21.7 12.9 51 6.2 SW 15 22 8 12 1009.0 1009.0 0.0
23/02:30am 23.5 21.9 12.8 51 6.1 SW 13 17 7 9 1008.8 1008.8 0.0
23/02:00am 23.9 22.6 13.7 53 6.0 WSW 13 19 7 10 1008.9 1008.9 0.0
23/01:30am 23.6 23.0 14.6 57 5.3 WSW 11 15 6 8 1008.9 1008.9 0.0
23/01:00am 24.1 23.6 14.8 56 5.5 W 11 15 6 8 1009.1 1009.1 0.0
23/12:30am 24.8 24.1 15.4 56 5.7 WSW 13 15 7 8 1009.3 1009.3 0.0
23/12:00am 25.1 24.8 16.5 59 5.3 WSW 13 19 7 10 1009.5 1009.5 0.0
 
Date/Time
WST
Temp
°C
App
Temp
°C
Dew
Point
Rel
Hum
%
Delta-T
°C
Wind Press
QNH
hPa
Press
MSL
hPa
Rain
since 9 am
mm
Dir
 
Spd
km/h
Gust
km/h
Spd
kts
Gust
kts
22/11:30pm 25.1 25.7 17.8 64 4.6 W 11 17 6 9 1009.7 1009.7 0.0
22/11:00pm 25.7 25.7 18.1 63 4.8 W 15 19 8 10 1009.9 1009.9 0.0
22/10:30pm 25.9 27.2 20.2 71 3.7 W 13 19 7 10 1010.1 1010.1 0.0
22/10:00pm 25.9 27.8 20.5 72 3.5 W 11 15 6 8 1010.4 1010.4 0.0
22/09:30pm 25.9 27.2 20.2 71 3.7 W 13 19 7 10 1010.3 1010.3 0.0
22/09:00pm 25.9 26.8 20.0 70 3.8 W 15 20 8 11 1010.0 1010.0 0.0
22/08:30pm 26.0 26.1 19.9 69 4.0 W 19 26 10 14 1009.9 1009.9 0.0
22/08:00pm 26.0 26.1 19.9 69 4.0 W 19 26 10 14 1009.8 1009.8 0.0
22/07:30pm 26.1 25.8 19.5 67 4.3 W 20 28 11 15 1009.6 1009.6 0.0
22/07:00pm 26.5 26.2 19.6 66 4.5 WNW 20 32 11 17 1009.5 1009.5 0.0
22/06:30pm 27.3 26.3 18.9 60 5.4 WNW 22 32 12 17 1009.2 1009.2 0.0
22/06:00pm 28.9 26.4 16.1 46 7.9 WNW 24 33 13 18 1009.0 1009.0 0.0
22/05:30pm 29.9 26.5 14.8 39 9.2 WNW 26 37 14 20 1008.8 1008.8 0.0
22/05:00pm 29.8 26.5 16.9 45 8.1 WNW 30 37 16 20 1008.6 1008.6 0.0
22/04:30pm 30.3 27.0 17.0 44 8.4 WNW 30 39 16 21 1008.5 1008.5 0.0
22/04:00pm 30.7 27.9 18.1 47 8.1 WNW 30 37 16 20 1008.5 1008.5 0.0
22/03:30pm 31.8 29.2 17.7 43 9.0 WNW 28 37 15 20 1008.5 1008.5 0.0
22/03:00pm 31.9 29.5 17.4 42 9.3 WNW 26 37 14 20 1008.5 1008.5 0.0
22/02:30pm 32.9 29.6 15.0 34 11.1 WNW 26 35 14 19 1008.8 1008.8 0.0
22/02:00pm 34.0 30.5 15.5 33 11.6 WNW 28 35 15 19 1008.9 1008.9 0.0
22/01:30pm 33.3 29.5 14.8 32 11.4 WNW 28 35 15 19 1009.3 1009.3 0.0
22/01:00pm 34.4 31.0 13.8 29 12.6 WNW 24 33 13 18 1009.4 1009.4 0.0
22/12:30pm 33.8 30.4 13.8 30 12.2 WNW 24 33 13 18 1009.7 1009.7 0.0
22/12:00pm 34.5 31.6 13.9 29 12.6 WNW 22 30 12 16 1009.9 1009.9 0.0
22/11:30am 33.2 30.1 13.3 30 12.0 W 22 32 12 17 1010.1 1010.1 0.0
22/11:00am 32.9 30.8 13.5 30 11.7 W 17 24 9 13 1010.3 1010.3 0.0
22/10:30am 33.5 30.9 9.5 23 13.7 WSW 13 22 7 12 1010.8 1010.8 0.0
22/10:00am 31.6 28.5 10.3 27 12.2 WSW 17 24 9 13 1010.8 1010.8 0.0
22/09:30am 30.1 27.8 10.6 30 11.1 WSW 13 20 7 11 1011.1 1011.1 0.0
22/09:00am 29.0 26.5 11.1 33 10.3 SW 15 22 8 12 1011.1 1011.1 0.0
22/08:30am 27.4 25.1 11.8 38 9.0 SW 15 22 8 12 1011.3 1011.3 0.0
22/08:00am 26.1 23.2 12.2 42 8.0 SW 19 26 10 14 1011.0 1011.0 0.0
22/07:30am 24.9 22.1 12.5 46 7.1 SW 19 26 10 14 1011.0 1011.0 0.0
22/07:00am 23.0 20.7 12.9 53 5.8 SW 17 22 9 12 1011.1 1011.1 0.0
22/06:30am 21.9 19.9 12.7 56 5.2 SW 15 22 8 12 1010.9 1010.9 0.0
22/06:00am 21.2 19.7 13.1 60 4.6 WSW 13 19 7 10 1010.3 1010.3 0.0
22/05:30am 20.6 19.6 13.3 63 4.2 WSW 11 17 6 9 1010.1 1010.1 0.0
22/05:00am 20.8 19.1 13.7 64 4.1 WSW 15 19 8 10 1009.7 1009.7 0.0
22/04:30am 21.1 20.3 14.0 64 4.1 WSW 11 15 6 8 1009.5 1009.5 0.0
22/04:00am 21.3 20.3 14.5 65 4.0 WSW 13 17 7 9 1009.5 1009.5 0.0
22/03:30am 21.5 20.9 14.6 65 4.1 WSW 11 15 6 8 1009.4 1009.4 0.0
22/03:00am 21.7 21.5 14.8 65 4.1 W 9 13 5 7 1009.6 1009.6 0.0
22/02:30am 22.3 21.9 15.2 64 4.2 W 11 15 6 8 1009.5 1009.5 0.0
22/02:00am 22.8 22.1 15.4 63 4.4 WSW 13 17 7 9 1009.5 1009.5 0.0
22/01:30am 23.1 22.9 15.7 63 4.5 WSW 11 15 6 8 1009.5 1009.5 0.0
22/01:00am 23.7 23.5 15.7 61 4.8 WSW 11 17 6 9 1009.5 1009.5 0.0
22/12:30am 24.3 24.1 15.8 59 5.2 WSW 11 17 6 9 1009.7 1009.7 0.0
22/12:00am 24.9 25.0 15.5 56 5.7 WSW 9 15 5 8 1009.9 1009.9 0.0
 
Date/Time
WST
Temp
°C
App
Temp
°C
Dew
Point
Rel
Hum
%
Delta-T
°C
Wind Press
QNH
hPa
Press
MSL
hPa
Rain
since 9 am
mm
Dir
 
Spd
km/h
Gust
km/h
Spd
kts
Gust
kts
21/11:30pm 25.5 24.2 15.8 55 5.9 WSW 17 24 9 13 1009.9 1009.9 0.0
21/11:00pm 26.1 25.8 18.2 61 5.0 WSW 17 24 9 13 1010.2 1010.2 0.0
21/10:30pm 26.1 25.6 19.2 65 4.4 WSW 20 28 11 15 1010.0 1010.0 0.0
21/10:00pm 26.3 25.8 19.2 65 4.6 W 20 32 11 17 1010.2 1010.2 0.0
21/09:30pm 26.4 26.1 19.5 66 4.5 W 20 30 11 16 1010.0 1010.0 0.0
21/09:00pm 26.4 26.2 19.3 65 4.6 W 19 28 10 15 1009.9 1009.9 0.0
21/08:30pm 26.6 26.3 19.5 65 4.6 W 20 28 11 15 1009.8 1009.8 0.0
21/08:00pm 26.7 26.3 19.3 64 4.8 W 20 30 11 16 1009.5 1009.5 0.0
21/07:30pm 26.9 26.4 19.0 62 5.1 W 20 30 11 16 1009.4 1009.4 0.0
21/07:00pm 27.3 26.6 18.3 58 5.7 W 19 26 10 14 1009.2 1009.2 0.0
21/06:30pm 28.3 26.1 16.9 50 7.1 W 24 32 13 17 1008.8 1008.8 0.0
21/06:00pm 29.4 26.3 14.4 40 9.1 WNW 24 35 13 19 1008.5 1008.5 0.0
21/05:30pm 30.2 25.5 12.1 32 10.6 W 28 37 15 20 1008.5 1008.5 0.0
21/05:00pm 30.6 25.5 13.8 35 10.1 W 33 43 18 23 1008.2 1008.2 0.0
21/04:30pm 30.7 26.4 15.9 40 9.2 WNW 33 43 18 23 1008.0 1008.0 0.0
21/04:00pm 32.0 28.4 16.3 39 9.9 W 30 39 16 21 1007.9 1007.9 0.0
21/03:30pm 33.4 29.1 15.4 34 11.2 W 32 39 17 21 1008.2 1008.2 0.0
21/03:00pm 33.0 28.7 15.9 35 10.7 W 33 44 18 24 1008.5 1008.5 0.0
21/02:30pm 33.0 28.4 15.0 33 11.1 W 33 43 18 23 1008.7 1008.7 0.0
21/02:00pm 33.1 28.3 14.7 33 11.3 W 33 43 18 23 1008.9 1008.9 0.0
21/01:30pm 34.3 29.7 14.7 30 12.1 WNW 32 43 17 23 1009.1 1009.1 0.0
21/01:00pm 35.1 30.4 13.3 27 13.3 WNW 30 37 16 20 1009.4 1009.4 0.0
21/12:30pm 34.6 30.6 14.0 29 12.6 WNW 28 39 15 21 1009.6 1009.6 0.0
21/12:00pm 34.7 31.2 13.5 28 12.9 WNW 24 35 13 19 1009.9 1009.9 0.0
21/11:30am 35.7 32.5 12.0 24 14.2 WNW 20 32 11 17 1010.3 1010.3 0.0
21/11:00am 35.6 31.6 8.4 19 15.4 W 19 30 10 16 1010.5 1010.5 0.0
21/10:30am 35.1 30.3 4.6 15 16.2 SW 19 28 10 15 1010.9 1010.9 0.0
21/10:00am 33.4 29.9 7.4 20 14.3 SW 15 24 8 13 1011.3 1011.3 0.0
21/09:30am 32.0 28.9 8.9 24 13.0 SW 15 24 8 13 1011.6 1011.6 0.0
21/09:00am 30.2 27.7 9.7 28 11.6 SW 13 22 7 12 1011.7 1011.7 0.0
21/08:30am 28.1 25.3 9.9 32 10.2 SSW 15 20 8 11 1011.7 1011.7 0.0
21/08:00am 26.9 23.6 9.7 34 9.5 SSW 17 22 9 12 1011.7 1011.7 0.0

Other Formats:

Comma delimited format used in spreadsheet applications
http://www.bom.gov.au/fwo/IDW60801/IDW60801.94306.axf

JavaScript Object Notation format (JSON) in row-major order
http://www.bom.gov.au/fwo/IDW60801/IDW60801.94306.json